sensor_id;sensor_type;location;lat;lon;timestamp;P1;durP1;ratioP1;P2;durP2;ratioP2
75139;SDS011;63714;55.812;37.658;2022-12-20T00:00:53;7.53;;;3.13;;
75139;SDS011;63714;55.812;37.658;2022-12-20T00:03:19;7.90;;;3.90;;
75139;SDS011;63714;55.812;37.658;2022-12-20T00:05:44;8.52;;;3.88;;
75139;SDS011;63714;55.812;37.658;2022-12-20T00:08:10;9.90;;;3.47;;
75139;SDS011;63714;55.812;37.658;2022-12-20T00:10:37;8.10;;;3.97;;
75139;SDS011;63714;55.812;37.658;2022-12-20T00:13:03;8.20;;;3.75;;
75139;SDS011;63714;55.812;37.658;2022-12-20T00:15:30;10.25;;;3.88;;
75139;SDS011;63714;55.812;37.658;2022-12-20T00:17:56;7.70;;;3.80;;
75139;SDS011;63714;55.812;37.658;2022-12-20T00:20:22;6.93;;;3.53;;
75139;SDS011;63714;55.812;37.658;2022-12-20T00:22:47;9.73;;;4.00;;
75139;SDS011;63714;55.812;37.658;2022-12-20T00:25:13;9.30;;;3.90;;
75139;SDS011;63714;55.812;37.658;2022-12-20T00:27:39;6.32;;;3.33;;
75139;SDS011;63714;55.812;37.658;2022-12-20T00:30:04;9.73;;;3.72;;
75139;SDS011;63714;55.812;37.658;2022-12-20T00:32:30;7.53;;;3.67;;
75139;SDS011;63714;55.812;37.658;2022-12-20T00:34:56;6.95;;;3.40;;
75139;SDS011;63714;55.812;37.658;2022-12-20T00:37:21;8.02;;;4.13;;
75139;SDS011;63714;55.812;37.658;2022-12-20T00:39:47;8.85;;;4.43;;
75139;SDS011;63714;55.812;37.658;2022-12-20T00:42:12;7.05;;;3.17;;
75139;SDS011;63714;55.812;37.658;2022-12-20T00:44:39;7.80;;;3.67;;
75139;SDS011;63714;55.812;37.658;2022-12-20T00:47:05;10.38;;;4.45;;
75139;SDS011;63714;55.812;37.658;2022-12-20T00:49:31;8.15;;;3.65;;
75139;SDS011;63714;55.812;37.658;2022-12-20T00:51:57;7.97;;;3.58;;
75139;SDS011;63714;55.812;37.658;2022-12-20T00:54:22;8.25;;;4.25;;
75139;SDS011;63714;55.812;37.658;2022-12-20T00:56:48;9.75;;;4.43;;
75139;SDS011;63714;55.812;37.658;2022-12-20T00:59:14;9.82;;;3.80;;
75139;SDS011;63714;55.812;37.658;2022-12-20T01:01:39;7.72;;;3.72;;
75139;SDS011;63714;55.812;37.658;2022-12-20T01:04:05;8.00;;;3.65;;
75139;SDS011;63714;55.812;37.658;2022-12-20T01:06:30;7.70;;;3.85;;
75139;SDS011;63714;55.812;37.658;2022-12-20T01:08:56;7.80;;;3.90;;
75139;SDS011;63714;55.812;37.658;2022-12-20T01:11:23;10.07;;;4.30;;
75139;SDS011;63714;55.812;37.658;2022-12-20T01:13:53;7.63;;;4.35;;
75139;SDS011;63714;55.812;37.658;2022-12-20T01:18:55;8.55;;;3.95;;
75139;SDS011;63714;55.812;37.658;2022-12-20T01:21:21;8.52;;;4.00;;
75139;SDS011;63714;55.812;37.658;2022-12-20T01:23:49;6.35;;;3.65;;
75139;SDS011;63714;55.812;37.658;2022-12-20T01:26:15;8.75;;;3.72;;
75139;SDS011;63714;55.812;37.658;2022-12-20T01:28:44;8.13;;;4.20;;
75139;SDS011;63714;55.812;37.658;2022-12-20T01:31:15;11.32;;;4.93;;
75139;SDS011;63714;55.812;37.658;2022-12-20T01:33:42;7.43;;;3.63;;
75139;SDS011;63714;55.812;37.658;2022-12-20T01:36:10;10.55;;;4.28;;
75139;SDS011;63714;55.812;37.658;2022-12-20T01:38:38;6.72;;;3.53;;
75139;SDS011;63714;55.812;37.658;2022-12-20T01:41:04;8.60;;;3.63;;
75139;SDS011;63714;55.812;37.658;2022-12-20T01:46:23;11.48;;;4.53;;
75139;SDS011;63714;55.812;37.658;2022-12-20T01:48:55;9.30;;;4.32;;
75139;SDS011;63714;55.812;37.658;2022-12-20T01:51:23;7.07;;;3.60;;
75139;SDS011;63714;55.812;37.658;2022-12-20T01:53:54;9.48;;;3.75;;
75139;SDS011;63714;55.812;37.658;2022-12-20T01:56:25;7.60;;;3.40;;
75139;SDS011;63714;55.812;37.658;2022-12-20T01:58:51;7.47;;;3.85;;
75139;SDS011;63714;55.812;37.658;2022-12-20T02:01:20;6.57;;;3.80;;
75139;SDS011;63714;55.812;37.658;2022-12-20T02:03:47;7.22;;;4.05;;
75139;SDS011;63714;55.812;37.658;2022-12-20T02:06:15;9.70;;;3.70;;
75139;SDS011;63714;55.812;37.658;2022-12-20T02:08:44;8.25;;;3.50;;
75139;SDS011;63714;55.812;37.658;2022-12-20T02:16:44;6.63;;;3.95;;
75139;SDS011;63714;55.812;37.658;2022-12-20T02:20:00;9.45;;;4.22;;
75139;SDS011;63714;55.812;37.658;2022-12-20T02:30:51;7.45;;;3.67;;
75139;SDS011;63714;55.812;37.658;2022-12-20T02:33:19;8.90;;;4.68;;
75139;SDS011;63714;55.812;37.658;2022-12-20T02:35:47;14.77;;;4.07;;
75139;SDS011;63714;55.812;37.658;2022-12-20T02:38:32;8.70;;;4.38;;
75139;SDS011;63714;55.812;37.658;2022-12-20T02:41:06;10.70;;;4.13;;
75139;SDS011;63714;55.812;37.658;2022-12-20T02:43:36;8.05;;;4.43;;
75139;SDS011;63714;55.812;37.658;2022-12-20T02:46:34;7.65;;;3.83;;
75139;SDS011;63714;55.812;37.658;2022-12-20T02:49:03;7.85;;;4.32;;
75139;SDS011;63714;55.812;37.658;2022-12-20T02:51:35;9.00;;;3.75;;
75139;SDS011;63714;55.812;37.658;2022-12-20T02:54:02;9.45;;;4.70;;
75139;SDS011;63714;55.812;37.658;2022-12-20T02:59:02;8.82;;;4.18;;
75139;SDS011;63714;55.812;37.658;2022-12-20T03:01:35;8.93;;;3.78;;
75139;SDS011;63714;55.812;37.658;2022-12-20T03:04:04;10.88;;;4.63;;
75139;SDS011;63714;55.812;37.658;2022-12-20T03:06:31;8.10;;;4.00;;
75139;SDS011;63714;55.812;37.658;2022-12-20T03:08:57;10.27;;;5.00;;
75139;SDS011;63714;55.812;37.658;2022-12-20T03:11:23;7.95;;;4.28;;
75139;SDS011;63714;55.812;37.658;2022-12-20T03:13:48;9.32;;;4.43;;
75139;SDS011;63714;55.812;37.658;2022-12-20T03:16:14;7.68;;;3.75;;
75139;SDS011;63714;55.812;37.658;2022-12-20T03:18:39;8.00;;;4.22;;
75139;SDS011;63714;55.812;37.658;2022-12-20T03:21:05;7.88;;;4.00;;
75139;SDS011;63714;55.812;37.658;2022-12-20T03:23:31;10.98;;;3.90;;
75139;SDS011;63714;55.812;37.658;2022-12-20T03:25:57;12.27;;;4.32;;
75139;SDS011;63714;55.812;37.658;2022-12-20T03:28:22;9.40;;;4.55;;
75139;SDS011;63714;55.812;37.658;2022-12-20T03:30:48;11.10;;;3.90;;
75139;SDS011;63714;55.812;37.658;2022-12-20T03:33:14;8.70;;;3.97;;
75139;SDS011;63714;55.812;37.658;2022-12-20T03:35:40;11.05;;;4.07;;
75139;SDS011;63714;55.812;37.658;2022-12-20T03:38:05;10.95;;;4.60;;
75139;SDS011;63714;55.812;37.658;2022-12-20T03:40:31;10.02;;;4.13;;
75139;SDS011;63714;55.812;37.658;2022-12-20T03:42:56;8.15;;;4.03;;
75139;SDS011;63714;55.812;37.658;2022-12-20T03:45:22;11.25;;;4.25;;
75139;SDS011;63714;55.812;37.658;2022-12-20T03:47:47;10.82;;;4.10;;
75139;SDS011;63714;55.812;37.658;2022-12-20T03:50:13;10.65;;;4.40;;
75139;SDS011;63714;55.812;37.658;2022-12-20T03:52:38;11.90;;;4.45;;
75139;SDS011;63714;55.812;37.658;2022-12-20T03:55:04;13.23;;;5.15;;
75139;SDS011;63714;55.812;37.658;2022-12-20T03:57:30;8.38;;;3.90;;
75139;SDS011;63714;55.812;37.658;2022-12-20T03:59:56;9.50;;;4.18;;
75139;SDS011;63714;55.812;37.658;2022-12-20T04:02:21;8.98;;;3.95;;
75139;SDS011;63714;55.812;37.658;2022-12-20T04:04:47;10.15;;;4.72;;
75139;SDS011;63714;55.812;37.658;2022-12-20T04:07:13;10.65;;;5.13;;
75139;SDS011;63714;55.812;37.658;2022-12-20T04:09:39;8.35;;;4.40;;
75139;SDS011;63714;55.812;37.658;2022-12-20T04:12:04;12.05;;;4.53;;
75139;SDS011;63714;55.812;37.658;2022-12-20T04:14:30;12.35;;;4.40;;
75139;SDS011;63714;55.812;37.658;2022-12-20T04:16:56;10.27;;;4.78;;
75139;SDS011;63714;55.812;37.658;2022-12-20T04:19:21;10.07;;;4.57;;
75139;SDS011;63714;55.812;37.658;2022-12-20T04:21:47;13.00;;;4.97;;
75139;SDS011;63714;55.812;37.658;2022-12-20T04:24:12;10.48;;;5.00;;
75139;SDS011;63714;55.812;37.658;2022-12-20T04:26:38;11.02;;;4.43;;
75139;SDS011;63714;55.812;37.658;2022-12-20T04:29:04;13.70;;;5.95;;
75139;SDS011;63714;55.812;37.658;2022-12-20T04:31:29;12.20;;;5.30;;
75139;SDS011;63714;55.812;37.658;2022-12-20T04:33:55;12.90;;;4.97;;
75139;SDS011;63714;55.812;37.658;2022-12-20T04:36:20;12.43;;;4.82;;
75139;SDS011;63714;55.812;37.658;2022-12-20T04:38:46;12.63;;;5.80;;
75139;SDS011;63714;55.812;37.658;2022-12-20T04:41:12;12.90;;;5.43;;
75139;SDS011;63714;55.812;37.658;2022-12-20T04:43:47;16.10;;;6.13;;
75139;SDS011;63714;55.812;37.658;2022-12-20T04:46:17;13.25;;;5.63;;
75139;SDS011;63714;55.812;37.658;2022-12-20T04:48:43;12.20;;;5.63;;
75139;SDS011;63714;55.812;37.658;2022-12-20T04:51:09;12.55;;;5.18;;
75139;SDS011;63714;55.812;37.658;2022-12-20T04:53:34;11.73;;;5.47;;
75139;SDS011;63714;55.812;37.658;2022-12-20T04:56:17;13.00;;;5.90;;
75139;SDS011;63714;55.812;37.658;2022-12-20T04:58:51;16.02;;;5.63;;
75139;SDS011;63714;55.812;37.658;2022-12-20T05:01:18;12.82;;;5.57;;
75139;SDS011;63714;55.812;37.658;2022-12-20T05:03:44;15.75;;;6.50;;
75139;SDS011;63714;55.812;37.658;2022-12-20T05:06:10;15.60;;;5.75;;
75139;SDS011;63714;55.812;37.658;2022-12-20T05:08:36;15.60;;;6.07;;
75139;SDS011;63714;55.812;37.658;2022-12-20T05:11:02;16.83;;;6.53;;
75139;SDS011;63714;55.812;37.658;2022-12-20T05:13:29;12.75;;;5.90;;
75139;SDS011;63714;55.812;37.658;2022-12-20T05:15:55;17.63;;;7.30;;
75139;SDS011;63714;55.812;37.658;2022-12-20T05:18:21;14.15;;;6.80;;
75139;SDS011;63714;55.812;37.658;2022-12-20T05:20:48;17.33;;;7.63;;
75139;SDS011;63714;55.812;37.658;2022-12-20T05:23:34;16.83;;;6.60;;
75139;SDS011;63714;55.812;37.658;2022-12-20T05:26:18;13.60;;;6.68;;
75139;SDS011;63714;55.812;37.658;2022-12-20T05:28:44;17.10;;;6.50;;
75139;SDS011;63714;55.812;37.658;2022-12-20T05:31:10;12.55;;;6.38;;
75139;SDS011;63714;55.812;37.658;2022-12-20T05:33:35;16.05;;;6.50;;
75139;SDS011;63714;55.812;37.658;2022-12-20T05:36:01;15.27;;;6.22;;
75139;SDS011;63714;55.812;37.658;2022-12-20T05:38:26;15.50;;;6.60;;
75139;SDS011;63714;55.812;37.658;2022-12-20T05:40:52;14.30;;;6.40;;
75139;SDS011;63714;55.812;37.658;2022-12-20T05:43:18;13.23;;;5.63;;
75139;SDS011;63714;55.812;37.658;2022-12-20T05:45:48;15.05;;;6.07;;
75139;SDS011;63714;55.812;37.658;2022-12-20T05:48:15;11.95;;;5.20;;
75139;SDS011;63714;55.812;37.658;2022-12-20T05:50:42;12.07;;;5.95;;
75139;SDS011;63714;55.812;37.658;2022-12-20T05:55:37;14.38;;;5.72;;
75139;SDS011;63714;55.812;37.658;2022-12-20T05:58:05;15.38;;;6.70;;
75139;SDS011;63714;55.812;37.658;2022-12-20T06:00:59;13.73;;;6.90;;
75139;SDS011;63714;55.812;37.658;2022-12-20T06:03:25;17.45;;;6.43;;
75139;SDS011;63714;55.812;37.658;2022-12-20T06:05:51;15.25;;;6.25;;
75139;SDS011;63714;55.812;37.658;2022-12-20T06:08:16;13.05;;;6.28;;
75139;SDS011;63714;55.812;37.658;2022-12-20T06:10:42;18.17;;;7.45;;
75139;SDS011;63714;55.812;37.658;2022-12-20T06:13:08;14.68;;;5.93;;
75139;SDS011;63714;55.812;37.658;2022-12-20T06:15:34;14.75;;;6.68;;
75139;SDS011;63714;55.812;37.658;2022-12-20T06:18:00;21.52;;;8.88;;
75139;SDS011;63714;55.812;37.658;2022-12-20T06:20:26;20.35;;;8.20;;
75139;SDS011;63714;55.812;37.658;2022-12-20T06:22:52;18.00;;;7.95;;
75139;SDS011;63714;55.812;37.658;2022-12-20T06:25:18;17.70;;;8.32;;
75139;SDS011;63714;55.812;37.658;2022-12-20T06:27:43;19.38;;;7.00;;
75139;SDS011;63714;55.812;37.658;2022-12-20T06:30:09;16.67;;;7.13;;
75139;SDS011;63714;55.812;37.658;2022-12-20T06:32:36;13.40;;;6.80;;
75139;SDS011;63714;55.812;37.658;2022-12-20T06:35:02;11.63;;;5.40;;
75139;SDS011;63714;55.812;37.658;2022-12-20T06:37:28;12.02;;;5.40;;
75139;SDS011;63714;55.812;37.658;2022-12-20T06:39:54;13.05;;;5.47;;
75139;SDS011;63714;55.812;37.658;2022-12-20T06:42:20;14.07;;;6.00;;
75139;SDS011;63714;55.812;37.658;2022-12-20T06:44:45;17.92;;;7.55;;
75139;SDS011;63714;55.812;37.658;2022-12-20T06:47:11;21.08;;;8.18;;
75139;SDS011;63714;55.812;37.658;2022-12-20T06:49:36;19.27;;;8.77;;
75139;SDS011;63714;55.812;37.658;2022-12-20T06:52:02;14.85;;;6.47;;
75139;SDS011;63714;55.812;37.658;2022-12-20T06:54:28;12.10;;;5.60;;
75139;SDS011;63714;55.812;37.658;2022-12-20T06:56:53;16.92;;;6.13;;
75139;SDS011;63714;55.812;37.658;2022-12-20T06:59:19;11.85;;;4.97;;
75139;SDS011;63714;55.812;37.658;2022-12-20T07:01:44;8.68;;;3.88;;
75139;SDS011;63714;55.812;37.658;2022-12-20T07:04:10;13.32;;;4.82;;
75139;SDS011;63714;55.812;37.658;2022-12-20T07:06:35;10.52;;;5.32;;
75139;SDS011;63714;55.812;37.658;2022-12-20T07:09:01;22.65;;;8.85;;
75139;SDS011;63714;55.812;37.658;2022-12-20T07:11:27;36.90;;;13.35;;
75139;SDS011;63714;55.812;37.658;2022-12-20T07:13:56;27.50;;;12.50;;
75139;SDS011;63714;55.812;37.658;2022-12-20T07:16:22;31.58;;;12.57;;
75139;SDS011;63714;55.812;37.658;2022-12-20T07:18:50;38.63;;;15.07;;
75139;SDS011;63714;55.812;37.658;2022-12-20T07:21:16;36.88;;;13.80;;
75139;SDS011;63714;55.812;37.658;2022-12-20T07:23:43;38.35;;;16.40;;
75139;SDS011;63714;55.812;37.658;2022-12-20T07:26:10;27.67;;;11.23;;
75139;SDS011;63714;55.812;37.658;2022-12-20T07:28:35;34.90;;;12.88;;
75139;SDS011;63714;55.812;37.658;2022-12-20T07:31:02;36.28;;;13.45;;
75139;SDS011;63714;55.812;37.658;2022-12-20T07:33:28;36.13;;;13.43;;
75139;SDS011;63714;55.812;37.658;2022-12-20T07:36:04;33.65;;;11.70;;
75139;SDS011;63714;55.812;37.658;2022-12-20T07:38:32;32.10;;;13.85;;
75139;SDS011;63714;55.812;37.658;2022-12-20T07:40:59;35.30;;;13.95;;
75139;SDS011;63714;55.812;37.658;2022-12-20T07:43:25;45.88;;;16.17;;
75139;SDS011;63714;55.812;37.658;2022-12-20T07:45:55;37.95;;;14.23;;
75139;SDS011;63714;55.812;37.658;2022-12-20T07:48:21;30.08;;;13.95;;
75139;SDS011;63714;55.812;37.658;2022-12-20T07:50:48;22.45;;;11.18;;
75139;SDS011;63714;55.812;37.658;2022-12-20T07:53:17;38.58;;;14.38;;
75139;SDS011;63714;55.812;37.658;2022-12-20T07:55:44;36.95;;;15.95;;
75139;SDS011;63714;55.812;37.658;2022-12-20T07:58:10;32.80;;;14.48;;
75139;SDS011;63714;55.812;37.658;2022-12-20T08:00:37;31.88;;;12.45;;
75139;SDS011;63714;55.812;37.658;2022-12-20T08:03:11;32.03;;;12.05;;
75139;SDS011;63714;55.812;37.658;2022-12-20T08:06:00;28.63;;;11.02;;
75139;SDS011;63714;55.812;37.658;2022-12-20T08:08:28;25.77;;;9.20;;
75139;SDS011;63714;55.812;37.658;2022-12-20T08:10:56;22.50;;;10.23;;
75139;SDS011;63714;55.812;37.658;2022-12-20T08:13:22;18.45;;;6.47;;
75139;SDS011;63714;55.812;37.658;2022-12-20T08:15:47;12.18;;;5.38;;
75139;SDS011;63714;55.812;37.658;2022-12-20T08:18:13;14.25;;;6.35;;
75139;SDS011;63714;55.812;37.658;2022-12-20T08:20:40;15.57;;;6.47;;
75139;SDS011;63714;55.812;37.658;2022-12-20T08:23:05;19.05;;;6.95;;
75139;SDS011;63714;55.812;37.658;2022-12-20T08:25:32;12.35;;;5.38;;
75139;SDS011;63714;55.812;37.658;2022-12-20T08:27:59;9.43;;;5.22;;
75139;SDS011;63714;55.812;37.658;2022-12-20T08:30:27;8.13;;;3.42;;
75139;SDS011;63714;55.812;37.658;2022-12-20T08:32:53;10.75;;;4.97;;
75139;SDS011;63714;55.812;37.658;2022-12-20T08:35:19;10.02;;;4.10;;
75139;SDS011;63714;55.812;37.658;2022-12-20T08:37:44;6.45;;;3.08;;
75139;SDS011;63714;55.812;37.658;2022-12-20T08:40:10;5.57;;;2.65;;
75139;SDS011;63714;55.812;37.658;2022-12-20T08:42:35;5.35;;;2.50;;
75139;SDS011;63714;55.812;37.658;2022-12-20T08:45:01;7.43;;;3.08;;
75139;SDS011;63714;55.812;37.658;2022-12-20T08:47:29;5.47;;;3.22;;
75139;SDS011;63714;55.812;37.658;2022-12-20T08:49:54;7.30;;;3.40;;
75139;SDS011;63714;55.812;37.658;2022-12-20T08:52:20;6.35;;;2.90;;
75139;SDS011;63714;55.812;37.658;2022-12-20T08:54:46;5.80;;;3.22;;
75139;SDS011;63714;55.812;37.658;2022-12-20T08:57:11;6.72;;;3.13;;
75139;SDS011;63714;55.812;37.658;2022-12-20T08:59:37;6.18;;;2.88;;
75139;SDS011;63714;55.812;37.658;2022-12-20T09:02:03;5.38;;;3.22;;
75139;SDS011;63714;55.812;37.658;2022-12-20T09:04:29;6.40;;;3.05;;
75139;SDS011;63714;55.812;37.658;2022-12-20T09:06:54;6.10;;;2.80;;
75139;SDS011;63714;55.812;37.658;2022-12-20T09:09:20;6.20;;;3.38;;
75139;SDS011;63714;55.812;37.658;2022-12-20T09:11:45;6.00;;;3.13;;
75139;SDS011;63714;55.812;37.658;2022-12-20T09:14:11;7.65;;;3.35;;
75139;SDS011;63714;55.812;37.658;2022-12-20T09:16:36;9.15;;;3.83;;
75139;SDS011;63714;55.812;37.658;2022-12-20T09:19:02;7.53;;;3.00;;
75139;SDS011;63714;55.812;37.658;2022-12-20T09:21:28;8.00;;;3.42;;
75139;SDS011;63714;55.812;37.658;2022-12-20T09:23:54;6.22;;;3.30;;
75139;SDS011;63714;55.812;37.658;2022-12-20T09:26:22;9.32;;;4.13;;
75139;SDS011;63714;55.812;37.658;2022-12-20T09:28:48;9.07;;;3.83;;
75139;SDS011;63714;55.812;37.658;2022-12-20T09:31:19;10.05;;;4.60;;
75139;SDS011;63714;55.812;37.658;2022-12-20T09:33:46;11.05;;;4.53;;
75139;SDS011;63714;55.812;37.658;2022-12-20T09:36:13;8.50;;;4.70;;
75139;SDS011;63714;55.812;37.658;2022-12-20T09:38:41;8.73;;;3.78;;
75139;SDS011;63714;55.812;37.658;2022-12-20T09:41:14;8.38;;;4.00;;
75139;SDS011;63714;55.812;37.658;2022-12-20T09:43:52;8.20;;;4.40;;
75139;SDS011;63714;55.812;37.658;2022-12-20T09:46:18;9.07;;;4.00;;
75139;SDS011;63714;55.812;37.658;2022-12-20T09:48:44;6.35;;;3.30;;
75139;SDS011;63714;55.812;37.658;2022-12-20T09:51:29;6.40;;;3.72;;
75139;SDS011;63714;55.812;37.658;2022-12-20T10:00:46;9.02;;;3.65;;
75139;SDS011;63714;55.812;37.658;2022-12-20T10:03:21;8.35;;;4.03;;
75139;SDS011;63714;55.812;37.658;2022-12-20T10:05:54;7.32;;;3.75;;
75139;SDS011;63714;55.812;37.658;2022-12-20T10:14:10;8.80;;;4.00;;
75139;SDS011;63714;55.812;37.658;2022-12-20T10:25:37;11.20;;;4.80;;
75139;SDS011;63714;55.812;37.658;2022-12-20T10:28:10;8.60;;;4.35;;
75139;SDS011;63714;55.812;37.658;2022-12-20T10:30:38;9.57;;;4.63;;
75139;SDS011;63714;55.812;37.658;2022-12-20T10:33:03;12.05;;;4.63;;
75139;SDS011;63714;55.812;37.658;2022-12-20T10:35:33;13.55;;;6.07;;
75139;SDS011;63714;55.812;37.658;2022-12-20T10:38:04;19.85;;;9.95;;
75139;SDS011;63714;55.812;37.658;2022-12-20T10:42:57;15.80;;;6.38;;
75139;SDS011;63714;55.812;37.658;2022-12-20T10:47:48;11.80;;;4.78;;
75139;SDS011;63714;55.812;37.658;2022-12-20T10:50:17;8.93;;;3.65;;
75139;SDS011;63714;55.812;37.658;2022-12-20T10:52:44;11.48;;;4.70;;
75139;SDS011;63714;55.812;37.658;2022-12-20T10:58:33;6.68;;;3.63;;
75139;SDS011;63714;55.812;37.658;2022-12-20T11:00:52;8.02;;;3.50;;
75139;SDS011;63714;55.812;37.658;2022-12-20T11:06:45;9.85;;;4.60;;
75139;SDS011;63714;55.812;37.658;2022-12-20T11:09:22;9.02;;;4.00;;
75139;SDS011;63714;55.812;37.658;2022-12-20T11:11:59;10.60;;;4.40;;
75139;SDS011;63714;55.812;37.658;2022-12-20T11:14:38;10.25;;;4.57;;
75139;SDS011;63714;55.812;37.658;2022-12-20T11:25:19;9.30;;;4.10;;
75139;SDS011;63714;55.812;37.658;2022-12-20T11:30:59;9.38;;;4.47;;
75139;SDS011;63714;55.812;37.658;2022-12-20T11:34:33;8.85;;;4.05;;
75139;SDS011;63714;55.812;37.658;2022-12-20T11:42:03;12.35;;;6.13;;
75139;SDS011;63714;55.812;37.658;2022-12-20T11:44:48;8.45;;;4.70;;
75139;SDS011;63714;55.812;37.658;2022-12-20T11:47:29;10.25;;;4.82;;
75139;SDS011;63714;55.812;37.658;2022-12-20T11:50:06;8.52;;;4.55;;
75139;SDS011;63714;55.812;37.658;2022-12-20T11:53:20;9.45;;;4.68;;
75139;SDS011;63714;55.812;37.658;2022-12-20T11:55:53;9.07;;;4.25;;
75139;SDS011;63714;55.812;37.658;2022-12-20T12:06:29;8.82;;;3.50;;
75139;SDS011;63714;55.812;37.658;2022-12-20T12:11:39;9.73;;;4.07;;
75139;SDS011;63714;55.812;37.658;2022-12-20T12:14:17;9.77;;;3.72;;
75139;SDS011;63714;55.812;37.658;2022-12-20T12:16:53;7.63;;;3.35;;
75139;SDS011;63714;55.812;37.658;2022-12-20T12:19:23;7.78;;;3.45;;
75139;SDS011;63714;55.812;37.658;2022-12-20T12:21:56;8.60;;;3.42;;
75139;SDS011;63714;55.812;37.658;2022-12-20T12:24:28;9.25;;;4.10;;
75139;SDS011;63714;55.812;37.658;2022-12-20T12:27:14;7.72;;;3.50;;
75139;SDS011;63714;55.812;37.658;2022-12-20T12:29:51;7.05;;;3.75;;
75139;SDS011;63714;55.812;37.658;2022-12-20T12:37:54;7.75;;;3.38;;
75139;SDS011;63714;55.812;37.658;2022-12-20T12:41:08;6.65;;;2.72;;
75139;SDS011;63714;55.812;37.658;2022-12-20T12:46:07;6.32;;;3.00;;
75139;SDS011;63714;55.812;37.658;2022-12-20T12:51:28;4.80;;;2.72;;
75139;SDS011;63714;55.812;37.658;2022-12-20T12:56:47;5.45;;;2.83;;
75139;SDS011;63714;55.812;37.658;2022-12-20T13:07:27;4.95;;;2.65;;
75139;SDS011;63714;55.812;37.658;2022-12-20T13:15:02;6.97;;;3.20;;
75139;SDS011;63714;55.812;37.658;2022-12-20T13:17:49;5.85;;;2.33;;
75139;SDS011;63714;55.812;37.658;2022-12-20T13:20:21;5.18;;;2.85;;
75139;SDS011;63714;55.812;37.658;2022-12-20T13:25:39;4.93;;;2.75;;
75139;SDS011;63714;55.812;37.658;2022-12-20T13:33:42;6.32;;;2.63;;
75139;SDS011;63714;55.812;37.658;2022-12-20T13:38:53;6.53;;;2.90;;
75139;SDS011;63714;55.812;37.658;2022-12-20T13:41:34;5.55;;;2.55;;
75139;SDS011;63714;55.812;37.658;2022-12-20T13:49:22;8.20;;;2.80;;
75139;SDS011;63714;55.812;37.658;2022-12-20T13:54:56;6.93;;;2.92;;
75139;SDS011;63714;55.812;37.658;2022-12-20T13:57:32;8.10;;;2.92;;
75139;SDS011;63714;55.812;37.658;2022-12-20T14:00:05;5.00;;;2.55;;
75139;SDS011;63714;55.812;37.658;2022-12-20T14:02:39;6.43;;;3.00;;
75139;SDS011;63714;55.812;37.658;2022-12-20T14:05:16;5.57;;;2.63;;
75139;SDS011;63714;55.812;37.658;2022-12-20T14:07:47;7.07;;;3.05;;
75139;SDS011;63714;55.812;37.658;2022-12-20T14:10:24;7.25;;;3.08;;
75139;SDS011;63714;55.812;37.658;2022-12-20T14:12:53;6.82;;;3.40;;
75139;SDS011;63714;55.812;37.658;2022-12-20T14:15:24;7.28;;;3.03;;
75139;SDS011;63714;55.812;37.658;2022-12-20T14:17:52;7.28;;;3.05;;
75139;SDS011;63714;55.812;37.658;2022-12-20T14:20:20;5.57;;;2.70;;
75139;SDS011;63714;55.812;37.658;2022-12-20T14:25:46;7.38;;;2.60;;
75139;SDS011;63714;55.812;37.658;2022-12-20T14:31:07;7.75;;;3.20;;
75139;SDS011;63714;55.812;37.658;2022-12-20T14:33:46;8.43;;;2.95;;
75139;SDS011;63714;55.812;37.658;2022-12-20T14:38:45;7.53;;;2.90;;
75139;SDS011;63714;55.812;37.658;2022-12-20T14:44:03;6.03;;;2.80;;
75139;SDS011;63714;55.812;37.658;2022-12-20T14:52:15;7.53;;;2.85;;
75139;SDS011;63714;55.812;37.658;2022-12-20T14:58:04;6.72;;;3.22;;
75139;SDS011;63714;55.812;37.658;2022-12-20T15:00:12;5.32;;;2.92;;
75139;SDS011;63714;55.812;37.658;2022-12-20T15:13:29;8.20;;;3.35;;
75139;SDS011;63714;55.812;37.658;2022-12-20T15:15:58;5.00;;;2.85;;
75139;SDS011;63714;55.812;37.658;2022-12-20T15:18:29;8.10;;;3.03;;
75139;SDS011;63714;55.812;37.658;2022-12-20T15:21:02;6.45;;;3.00;;
75139;SDS011;63714;55.812;37.658;2022-12-20T15:23:31;6.25;;;3.03;;
75139;SDS011;63714;55.812;37.658;2022-12-20T15:25:58;8.57;;;3.97;;
75139;SDS011;63714;55.812;37.658;2022-12-20T15:28:24;7.55;;;3.00;;
75139;SDS011;63714;55.812;37.658;2022-12-20T15:35:05;6.10;;;3.08;;
75139;SDS011;63714;55.812;37.658;2022-12-20T15:37:37;6.88;;;3.20;;
75139;SDS011;63714;55.812;37.658;2022-12-20T15:40:03;6.90;;;3.95;;
75139;SDS011;63714;55.812;37.658;2022-12-20T15:42:29;7.07;;;3.60;;
75139;SDS011;63714;55.812;37.658;2022-12-20T15:44:54;7.90;;;3.20;;
75139;SDS011;63714;55.812;37.658;2022-12-20T15:47:21;5.75;;;3.15;;
75139;SDS011;63714;55.812;37.658;2022-12-20T15:49:47;7.28;;;3.40;;
75139;SDS011;63714;55.812;37.658;2022-12-20T15:52:20;10.15;;;4.00;;
75139;SDS011;63714;55.812;37.658;2022-12-20T15:54:47;7.25;;;3.65;;
75139;SDS011;63714;55.812;37.658;2022-12-20T15:57:13;8.07;;;3.70;;
75139;SDS011;63714;55.812;37.658;2022-12-20T16:00:44;7.82;;;3.28;;
75139;SDS011;63714;55.812;37.658;2022-12-20T16:03:14;7.47;;;3.08;;
75139;SDS011;63714;55.812;37.658;2022-12-20T16:05:42;5.93;;;2.85;;
75139;SDS011;63714;55.812;37.658;2022-12-20T16:08:08;6.55;;;2.80;;
75139;SDS011;63714;55.812;37.658;2022-12-20T16:10:34;7.38;;;2.78;;
75139;SDS011;63714;55.812;37.658;2022-12-20T16:13:00;6.53;;;3.03;;
75139;SDS011;63714;55.812;37.658;2022-12-20T16:15:26;6.57;;;3.58;;
75139;SDS011;63714;55.812;37.658;2022-12-20T16:17:51;8.95;;;3.45;;
75139;SDS011;63714;55.812;37.658;2022-12-20T16:20:17;7.72;;;3.03;;
75139;SDS011;63714;55.812;37.658;2022-12-20T16:22:43;7.38;;;3.65;;
75139;SDS011;63714;55.812;37.658;2022-12-20T16:25:31;8.85;;;3.33;;
75139;SDS011;63714;55.812;37.658;2022-12-20T16:27:57;8.27;;;3.22;;
75139;SDS011;63714;55.812;37.658;2022-12-20T16:30:24;10.57;;;3.45;;
75139;SDS011;63714;55.812;37.658;2022-12-20T16:32:50;7.13;;;3.53;;
75139;SDS011;63714;55.812;37.658;2022-12-20T16:35:20;11.35;;;4.20;;
75139;SDS011;63714;55.812;37.658;2022-12-20T16:38:03;8.13;;;2.92;;
75139;SDS011;63714;55.812;37.658;2022-12-20T16:40:29;8.88;;;3.38;;
75139;SDS011;63714;55.812;37.658;2022-12-20T16:42:57;7.57;;;3.72;;
75139;SDS011;63714;55.812;37.658;2022-12-20T16:45:25;9.27;;;3.72;;
75139;SDS011;63714;55.812;37.658;2022-12-20T16:47:52;5.95;;;2.97;;
75139;SDS011;63714;55.812;37.658;2022-12-20T16:50:19;8.30;;;3.28;;
75139;SDS011;63714;55.812;37.658;2022-12-20T16:52:46;8.27;;;3.28;;
75139;SDS011;63714;55.812;37.658;2022-12-20T16:55:19;6.95;;;3.30;;
75139;SDS011;63714;55.812;37.658;2022-12-20T16:57:49;8.77;;;3.83;;
75139;SDS011;63714;55.812;37.658;2022-12-20T17:00:16;7.22;;;3.08;;
75139;SDS011;63714;55.812;37.658;2022-12-20T17:02:46;7.95;;;3.22;;
75139;SDS011;63714;55.812;37.658;2022-12-20T17:07:48;8.18;;;3.60;;
75139;SDS011;63714;55.812;37.658;2022-12-20T17:10:13;10.50;;;4.07;;
75139;SDS011;63714;55.812;37.658;2022-12-20T17:12:39;7.35;;;3.40;;
75139;SDS011;63714;55.812;37.658;2022-12-20T17:15:05;8.38;;;3.60;;
75139;SDS011;63714;55.812;37.658;2022-12-20T17:17:31;9.30;;;3.42;;
75139;SDS011;63714;55.812;37.658;2022-12-20T17:19:57;8.90;;;3.50;;
75139;SDS011;63714;55.812;37.658;2022-12-20T17:22:23;8.73;;;3.75;;
75139;SDS011;63714;55.812;37.658;2022-12-20T17:24:49;8.10;;;3.75;;
75139;SDS011;63714;55.812;37.658;2022-12-20T17:27:15;10.43;;;3.80;;